Yahata Maru — JL6477 — position and weather

sailwx.info

Track history (hours):
 
Tides and Currents Weather Stations Pressure Air Temp Water Temp Dewpoint Dewpoint Depression Visibility Wind Speed Wind Dir Waves Ship Positions

Yahata Maru

Last reported at 2014-Nov-25 00:32 UTC. Time now 2014-Nov-25 01:34 UTC.
Position N 35°22' E 139°44'.

Length 149 m; draft 4.7 m.

Type: Other ship. MMSI: 431400594.

Date/timePositionNaut miles runAvg speedWind from/ knotsBaromVisibWave heightAir tempDewpointWater temp
2014-Nov-25 00:32N 35°22' E 139°44'1 0.8
2014-Nov-24 23:33N 35°22' E 139°44'9 8.5
2014-Nov-24 22:33N 35°14' E 139°47'  
2014-Nov-21 00:07N 34°33' E 134°47'712.0
2014-Nov-20 23:32N 34°36' E 134°55'1010.6
2014-Nov-20 22:33N 34°36' E 135°08'9 9.1
2014-Nov-20 21:33N 34°40' E 135°18'4 4.0
2014-Nov-20 20:33N 34°43' E 135°21'0 0.0
2014-Nov-20 19:16N 34°43' E 135°21'0 0.0
2014-Nov-20 18:22N 34°43' E 135°21'0 0.0
2014-Nov-20 17:28N 34°43' E 135°21'0 0.0
2014-Nov-20 16:22N 34°43' E 135°21'0 0.0
2014-Nov-20 15:28N 34°43' E 135°21'0 0.0
2014-Nov-20 14:22N 34°43' E 135°21'0 0.0
2014-Nov-20 13:28N 34°43' E 135°21'0 0.0
2014-Nov-20 12:28N 34°43' E 135°21'0 0.0
2014-Nov-20 11:28N 34°43' E 135°21'0 0.0
2014-Nov-20 10:28N 34°43' E 135°21'0 0.5
2014-Nov-20 09:33N 34°43' E 135°20'6 6.4
2014-Nov-20 08:33N 34°36' E 135°21'4 3.5
2014-Nov-20 07:33N 34°35' E 135°26'0 0.0
2014-Nov-20 06:33N 34°35' E 135°26'0 0.0
2014-Nov-20 05:23N 34°35' E 135°26'4 4.5
2014-Nov-20 04:33N 34°36' E 135°21'10 9.6
2014-Nov-20 03:33N 34°29' E 135°13'9 9.1
2014-Nov-20 02:33N 34°23' E 135°05'8 8.3
2014-Nov-20 01:33N 34°16' E 134°59'10 9.6
2014-Nov-20 00:29N 34°06' E 135°01'11 9.0
2014-Nov-19 23:15N 33°55' E 135°02'241 5.9
2014-Nov-18 06:25N 35°07' E 139°41'8 9.2
2014-Nov-18 05:33N 35°14' E 139°46'9 9.3
2014-Nov-18 04:33N 35°22' E 139°42'6 5.5
2014-Nov-18 03:33N 35°28' E 139°43'0 0.0
2014-Nov-18 02:33N 35°28' E 139°43'0 0.0
2014-Nov-18 01:33N 35°28' E 139°43'0 0.0
2014-Nov-18 00:33N 35°28' E 139°43'0 0.2
2014-Nov-17 23:34N 35°28' E 139°42'5 5.3
2014-Nov-17 22:33N 35°28' E 139°49'10 9.4
2014-Nov-17 21:32N 35°33' E 139°59'1 0.1
2014-Nov-17 09:33N 35°33' E 140°00'4 0.6
2014-Nov-17 02:21N 35°31' E 139°56'8 9.3
2014-Nov-17 01:33N 35°26' E 139°48'9 8.7
2014-Nov-17 00:34N 35°23' E 139°38'0 0.1
2014-Nov-16 23:33N 35°23' E 139°38'0 0.2
2014-Nov-16 22:33N 35°23' E 139°39'4 4.5
2014-Nov-16 21:33N 35°22' E 139°44'0 0.0
2014-Nov-16 20:33N 35°22' E 139°44'0 0.0
2014-Nov-16 19:33N 35°22' E 139°44'0 0.0
2014-Nov-16 18:33N 35°22' E 139°44'0 0.0
2014-Nov-16 17:33N 35°22' E 139°44'0 0.0
2014-Nov-16 16:33N 35°22' E 139°44'0 0.0
2014-Nov-16 15:33N 35°22' E 139°44'0 0.1
2014-Nov-16 14:33N 35°22' E 139°44'2 1.7
2014-Nov-16 13:33N 35°21' E 139°43'10 8.9
2014-Nov-16 12:28N 35°11' E 139°46'  
Track history (hours):
 
Tides and Currents Weather Stations Pressure Air Temp Water Temp Dewpoint Dewpoint Depression Visibility Wind Speed Wind Dir Waves Ship Positions

Yahata Maru

Last reported at 2014-Nov-25 00:32 UTC. Time now 2014-Nov-25 01:34 UTC.
Position N 35°22' E 139°44'.

Length 149 m; draft 4.7 m.

Type: Other ship. MMSI: 431400594.

Date/timePositionNaut miles runAvg speedWind from/ knotsBaromVisibWave heightAir tempDewpointWater temp
2014-Nov-25 00:32N 35°22' E 139°44'1 0.8
2014-Nov-24 23:33N 35°22' E 139°44'9 8.5
2014-Nov-24 22:33N 35°14' E 139°47'  
2014-Nov-21 00:07N 34°33' E 134°47'712.0
2014-Nov-20 23:32N 34°36' E 134°55'1010.6
2014-Nov-20 22:33N 34°36' E 135°08'9 9.1
2014-Nov-20 21:33N 34°40' E 135°18'4 4.0
2014-Nov-20 20:33N 34°43' E 135°21'0 0.0
2014-Nov-20 19:16N 34°43' E 135°21'0 0.0
2014-Nov-20 18:22N 34°43' E 135°21'0 0.0
2014-Nov-20 17:28N 34°43' E 135°21'0 0.0
2014-Nov-20 16:22N 34°43' E 135°21'0 0.0
2014-Nov-20 15:28N 34°43' E 135°21'0 0.0
2014-Nov-20 14:22N 34°43' E 135°21'0 0.0
2014-Nov-20 13:28N 34°43' E 135°21'0 0.0
2014-Nov-20 12:28N 34°43' E 135°21'0 0.0
2014-Nov-20 11:28N 34°43' E 135°21'0 0.0
2014-Nov-20 10:28N 34°43' E 135°21'0 0.5
2014-Nov-20 09:33N 34°43' E 135°20'6 6.4
2014-Nov-20 08:33N 34°36' E 135°21'4 3.5
2014-Nov-20 07:33N 34°35' E 135°26'0 0.0
2014-Nov-20 06:33N 34°35' E 135°26'0 0.0
2014-Nov-20 05:23N 34°35' E 135°26'4 4.5
2014-Nov-20 04:33N 34°36' E 135°21'10 9.6
2014-Nov-20 03:33N 34°29' E 135°13'9 9.1
2014-Nov-20 02:33N 34°23' E 135°05'8 8.3
2014-Nov-20 01:33N 34°16' E 134°59'10 9.6
2014-Nov-20 00:29N 34°06' E 135°01'11 9.0
2014-Nov-19 23:15N 33°55' E 135°02'241 5.9
2014-Nov-18 06:25N 35°07' E 139°41'8 9.2
2014-Nov-18 05:33N 35°14' E 139°46'9 9.3
2014-Nov-18 04:33N 35°22' E 139°42'6 5.5
2014-Nov-18 03:33N 35°28' E 139°43'0 0.0
2014-Nov-18 02:33N 35°28' E 139°43'0 0.0
2014-Nov-18 01:33N 35°28' E 139°43'0 0.0
2014-Nov-18 00:33N 35°28' E 139°43'0 0.2
2014-Nov-17 23:34N 35°28' E 139°42'5 5.3
2014-Nov-17 22:33N 35°28' E 139°49'10 9.4
2014-Nov-17 21:32N 35°33' E 139°59'1 0.1
2014-Nov-17 09:33N 35°33' E 140°00'4 0.6
2014-Nov-17 02:21N 35°31' E 139°56'8 9.3
2014-Nov-17 01:33N 35°26' E 139°48'9 8.7
2014-Nov-17 00:34N 35°23' E 139°38'0 0.1
2014-Nov-16 23:33N 35°23' E 139°38'0 0.2
2014-Nov-16 22:33N 35°23' E 139°39'4 4.5
2014-Nov-16 21:33N 35°22' E 139°44'0 0.0
2014-Nov-16 20:33N 35°22' E 139°44'0 0.0
2014-Nov-16 19:33N 35°22' E 139°44'0 0.0
2014-Nov-16 18:33N 35°22' E 139°44'0 0.0
2014-Nov-16 17:33N 35°22' E 139°44'0 0.0
2014-Nov-16 16:33N 35°22' E 139°44'0 0.0
2014-Nov-16 15:33N 35°22' E 139°44'0 0.1
2014-Nov-16 14:33N 35°22' E 139°44'2 1.7
2014-Nov-16 13:33N 35°21' E 139°43'10 8.9
2014-Nov-16 12:28N 35°11' E 139°46'  

Dump ship's entire track history